sensor_id;sensor_type;location;lat;lon;timestamp;P1;durP1;ratioP1;P2;durP2;ratioP2
69305;SDS011;56427;51.580;4.656;2022-09-24T00:00:42;23.33;;;15.03;;
69305;SDS011;56427;51.580;4.656;2022-09-24T00:03:08;21.33;;;14.07;;
69305;SDS011;56427;51.580;4.656;2022-09-24T00:05:38;25.67;;;16.23;;
69305;SDS011;56427;51.580;4.656;2022-09-24T00:08:04;25.60;;;14.90;;
69305;SDS011;56427;51.580;4.656;2022-09-24T00:10:39;27.93;;;15.27;;
69305;SDS011;56427;51.580;4.656;2022-09-24T00:13:07;23.27;;;14.95;;
69305;SDS011;56427;51.580;4.656;2022-09-24T00:15:37;26.25;;;17.33;;
69305;SDS011;56427;51.580;4.656;2022-09-24T00:18:04;27.30;;;17.20;;
69305;SDS011;56427;51.580;4.656;2022-09-24T00:20:30;27.95;;;16.65;;
69305;SDS011;56427;51.580;4.656;2022-09-24T00:22:57;28.00;;;17.27;;
69305;SDS011;56427;51.580;4.656;2022-09-24T00:25:22;24.77;;;15.80;;
69305;SDS011;56427;51.580;4.656;2022-09-24T00:28:07;32.15;;;17.77;;
69305;SDS011;56427;51.580;4.656;2022-09-24T00:30:33;28.63;;;17.83;;
69305;SDS011;56427;51.580;4.656;2022-09-24T00:32:58;28.03;;;16.87;;
69305;SDS011;56427;51.580;4.656;2022-09-24T00:35:24;30.47;;;17.83;;
69305;SDS011;56427;51.580;4.656;2022-09-24T00:37:50;27.63;;;17.08;;
69305;SDS011;56427;51.580;4.656;2022-09-24T00:40:16;28.43;;;17.13;;
69305;SDS011;56427;51.580;4.656;2022-09-24T00:42:41;26.10;;;15.88;;
69305;SDS011;56427;51.580;4.656;2022-09-24T00:45:08;24.13;;;15.37;;
69305;SDS011;56427;51.580;4.656;2022-09-24T00:47:34;25.55;;;16.17;;
69305;SDS011;56427;51.580;4.656;2022-09-24T00:52:40;22.45;;;15.23;;
69305;SDS011;56427;51.580;4.656;2022-09-24T00:55:09;25.98;;;16.63;;
69305;SDS011;56427;51.580;4.656;2022-09-24T00:57:35;23.70;;;15.65;;
69305;SDS011;56427;51.580;4.656;2022-09-24T01:00:03;25.30;;;16.60;;
69305;SDS011;56427;51.580;4.656;2022-09-24T01:02:29;24.90;;;15.73;;
69305;SDS011;56427;51.580;4.656;2022-09-24T01:04:55;25.02;;;16.05;;
69305;SDS011;56427;51.580;4.656;2022-09-24T01:07:21;26.70;;;15.65;;
69305;SDS011;56427;51.580;4.656;2022-09-24T01:09:47;25.53;;;15.43;;
69305;SDS011;56427;51.580;4.656;2022-09-24T01:12:22;26.10;;;16.17;;
69305;SDS011;56427;51.580;4.656;2022-09-24T01:15:07;25.77;;;16.35;;
69305;SDS011;56427;51.580;4.656;2022-09-24T01:17:48;27.30;;;15.93;;
69305;SDS011;56427;51.580;4.656;2022-09-24T01:23:10;26.58;;;16.58;;
69305;SDS011;56427;51.580;4.656;2022-09-24T01:30:58;29.42;;;18.73;;
69305;SDS011;56427;51.580;4.656;2022-09-24T01:33:29;25.50;;;16.63;;
69305;SDS011;56427;51.580;4.656;2022-09-24T01:35:58;27.83;;;17.90;;
69305;SDS011;56427;51.580;4.656;2022-09-24T01:38:32;28.73;;;19.23;;
69305;SDS011;56427;51.580;4.656;2022-09-24T01:41:03;28.42;;;17.80;;
69305;SDS011;56427;51.580;4.656;2022-09-24T01:43:31;29.90;;;19.60;;
69305;SDS011;56427;51.580;4.656;2022-09-24T01:45:57;29.70;;;18.67;;
69305;SDS011;56427;51.580;4.656;2022-09-24T01:48:26;30.65;;;20.58;;
69305;SDS011;56427;51.580;4.656;2022-09-24T01:53:24;28.90;;;19.17;;
69305;SDS011;56427;51.580;4.656;2022-09-24T01:55:58;32.50;;;20.17;;
69305;SDS011;56427;51.580;4.656;2022-09-24T01:58:31;42.93;;;24.30;;
69305;SDS011;56427;51.580;4.656;2022-09-24T02:01:06;29.05;;;19.90;;
69305;SDS011;56427;51.580;4.656;2022-09-24T02:03:35;32.10;;;20.13;;
69305;SDS011;56427;51.580;4.656;2022-09-24T02:09:29;31.00;;;20.25;;
69305;SDS011;56427;51.580;4.656;2022-09-24T02:11:53;37.20;;;22.20;;
69305;SDS011;56427;51.580;4.656;2022-09-24T02:14:20;30.23;;;20.17;;
69305;SDS011;56427;51.580;4.656;2022-09-24T02:16:47;33.53;;;21.05;;
69305;SDS011;56427;51.580;4.656;2022-09-24T02:19:14;39.13;;;23.92;;
69305;SDS011;56427;51.580;4.656;2022-09-24T02:21:42;31.73;;;20.80;;
69305;SDS011;56427;51.580;4.656;2022-09-24T02:24:14;35.47;;;21.17;;
69305;SDS011;56427;51.580;4.656;2022-09-24T02:26:43;36.95;;;21.15;;
69305;SDS011;56427;51.580;4.656;2022-09-24T02:29:09;35.10;;;21.70;;
69305;SDS011;56427;51.580;4.656;2022-09-24T02:31:36;36.00;;;22.58;;
69305;SDS011;56427;51.580;4.656;2022-09-24T02:34:09;40.20;;;22.65;;
69305;SDS011;56427;51.580;4.656;2022-09-24T02:36:44;37.63;;;20.87;;
69305;SDS011;56427;51.580;4.656;2022-09-24T02:39:11;37.67;;;21.88;;
69305;SDS011;56427;51.580;4.656;2022-09-24T02:41:36;35.80;;;22.70;;
69305;SDS011;56427;51.580;4.656;2022-09-24T02:44:02;43.38;;;25.05;;
69305;SDS011;56427;51.580;4.656;2022-09-24T02:46:27;35.33;;;22.43;;
69305;SDS011;56427;51.580;4.656;2022-09-24T02:48:53;37.27;;;22.27;;
69305;SDS011;56427;51.580;4.656;2022-09-24T02:51:18;34.63;;;23.00;;
69305;SDS011;56427;51.580;4.656;2022-09-24T02:53:43;37.47;;;23.03;;
69305;SDS011;56427;51.580;4.656;2022-09-24T02:56:09;38.57;;;23.13;;
69305;SDS011;56427;51.580;4.656;2022-09-24T02:58:35;41.25;;;24.63;;
69305;SDS011;56427;51.580;4.656;2022-09-24T03:01:01;37.80;;;23.40;;
69305;SDS011;56427;51.580;4.656;2022-09-24T03:03:28;41.40;;;25.13;;
69305;SDS011;56427;51.580;4.656;2022-09-24T03:05:53;49.78;;;28.00;;
69305;SDS011;56427;51.580;4.656;2022-09-24T03:08:22;40.30;;;24.93;;
69305;SDS011;56427;51.580;4.656;2022-09-24T03:10:49;52.25;;;28.95;;
69305;SDS011;56427;51.580;4.656;2022-09-24T03:13:15;48.63;;;28.87;;
69305;SDS011;56427;51.580;4.656;2022-09-24T03:15:42;45.47;;;28.30;;
69305;SDS011;56427;51.580;4.656;2022-09-24T03:18:08;43.85;;;26.92;;
69305;SDS011;56427;51.580;4.656;2022-09-24T03:20:34;48.23;;;29.13;;
69305;SDS011;56427;51.580;4.656;2022-09-24T03:22:59;43.20;;;26.77;;
69305;SDS011;56427;51.580;4.656;2022-09-24T03:25:24;40.33;;;25.53;;
69305;SDS011;56427;51.580;4.656;2022-09-24T03:27:49;43.97;;;27.73;;
69305;SDS011;56427;51.580;4.656;2022-09-24T03:30:15;41.20;;;26.20;;
69305;SDS011;56427;51.580;4.656;2022-09-24T03:32:59;40.70;;;25.77;;
69305;SDS011;56427;51.580;4.656;2022-09-24T03:35:24;34.13;;;22.60;;
69305;SDS011;56427;51.580;4.656;2022-09-24T03:37:50;29.35;;;20.02;;
69305;SDS011;56427;51.580;4.656;2022-09-24T03:40:15;28.87;;;20.20;;
69305;SDS011;56427;51.580;4.656;2022-09-24T03:42:41;33.00;;;21.43;;
69305;SDS011;56427;51.580;4.656;2022-09-24T03:45:06;31.87;;;22.17;;
69305;SDS011;56427;51.580;4.656;2022-09-24T03:47:32;27.52;;;19.38;;
69305;SDS011;56427;51.580;4.656;2022-09-24T03:49:57;28.57;;;18.57;;
69305;SDS011;56427;51.580;4.656;2022-09-24T03:52:23;26.10;;;17.67;;
69305;SDS011;56427;51.580;4.656;2022-09-24T03:54:48;25.77;;;17.10;;
69305;SDS011;56427;51.580;4.656;2022-09-24T03:57:14;28.63;;;17.87;;
69305;SDS011;56427;51.580;4.656;2022-09-24T03:59:40;24.37;;;16.77;;
69305;SDS011;56427;51.580;4.656;2022-09-24T04:02:06;27.20;;;16.55;;
69305;SDS011;56427;51.580;4.656;2022-09-24T04:04:32;25.37;;;15.73;;
69305;SDS011;56427;51.580;4.656;2022-09-24T04:06:57;23.97;;;14.70;;
69305;SDS011;56427;51.580;4.656;2022-09-24T04:09:23;19.33;;;13.07;;
69305;SDS011;56427;51.580;4.656;2022-09-24T04:11:49;22.37;;;14.37;;
69305;SDS011;56427;51.580;4.656;2022-09-24T04:14:16;21.35;;;13.30;;
69305;SDS011;56427;51.580;4.656;2022-09-24T04:16:41;20.37;;;14.47;;
69305;SDS011;56427;51.580;4.656;2022-09-24T04:19:06;22.27;;;14.37;;
69305;SDS011;56427;51.580;4.656;2022-09-24T04:21:32;23.43;;;13.83;;
69305;SDS011;56427;51.580;4.656;2022-09-24T04:23:57;21.93;;;13.40;;
69305;SDS011;56427;51.580;4.656;2022-09-24T04:26:22;23.47;;;15.00;;
69305;SDS011;56427;51.580;4.656;2022-09-24T04:28:48;25.10;;;15.77;;
69305;SDS011;56427;51.580;4.656;2022-09-24T04:31:14;26.27;;;16.20;;
69305;SDS011;56427;51.580;4.656;2022-09-24T04:33:39;25.77;;;16.77;;
69305;SDS011;56427;51.580;4.656;2022-09-24T04:36:05;29.87;;;17.73;;
69305;SDS011;56427;51.580;4.656;2022-09-24T04:38:30;29.77;;;17.83;;
69305;SDS011;56427;51.580;4.656;2022-09-24T04:41:02;28.03;;;16.37;;
69305;SDS011;56427;51.580;4.656;2022-09-24T04:43:31;26.55;;;17.20;;
69305;SDS011;56427;51.580;4.656;2022-09-24T04:45:57;29.87;;;16.10;;
69305;SDS011;56427;51.580;4.656;2022-09-24T04:48:23;29.95;;;18.17;;
69305;SDS011;56427;51.580;4.656;2022-09-24T04:50:48;27.60;;;17.03;;
69305;SDS011;56427;51.580;4.656;2022-09-24T04:53:13;27.37;;;17.23;;
69305;SDS011;56427;51.580;4.656;2022-09-24T04:55:39;28.67;;;15.90;;
69305;SDS011;56427;51.580;4.656;2022-09-24T04:58:05;26.77;;;16.60;;
69305;SDS011;56427;51.580;4.656;2022-09-24T05:00:30;25.67;;;16.83;;
69305;SDS011;56427;51.580;4.656;2022-09-24T05:02:57;23.90;;;15.30;;
69305;SDS011;56427;51.580;4.656;2022-09-24T05:05:24;27.00;;;16.42;;
69305;SDS011;56427;51.580;4.656;2022-09-24T05:07:49;28.07;;;17.00;;
69305;SDS011;56427;51.580;4.656;2022-09-24T05:10:16;27.33;;;17.00;;
69305;SDS011;56427;51.580;4.656;2022-09-24T05:12:42;36.97;;;18.60;;
69305;SDS011;56427;51.580;4.656;2022-09-24T05:15:07;26.60;;;16.33;;
69305;SDS011;56427;51.580;4.656;2022-09-24T05:17:36;31.38;;;18.15;;
69305;SDS011;56427;51.580;4.656;2022-09-24T05:20:03;33.00;;;19.13;;
69305;SDS011;56427;51.580;4.656;2022-09-24T05:22:28;35.23;;;18.40;;
69305;SDS011;56427;51.580;4.656;2022-09-24T05:24:55;27.60;;;17.05;;
69305;SDS011;56427;51.580;4.656;2022-09-24T05:27:20;31.47;;;18.73;;
69305;SDS011;56427;51.580;4.656;2022-09-24T05:29:47;34.67;;;19.45;;
69305;SDS011;56427;51.580;4.656;2022-09-24T05:32:13;31.33;;;17.80;;
69305;SDS011;56427;51.580;4.656;2022-09-24T05:34:43;35.80;;;18.85;;
69305;SDS011;56427;51.580;4.656;2022-09-24T05:37:10;26.50;;;16.38;;
69305;SDS011;56427;51.580;4.656;2022-09-24T05:39:36;25.77;;;15.63;;
69305;SDS011;56427;51.580;4.656;2022-09-24T05:42:02;29.77;;;17.07;;
69305;SDS011;56427;51.580;4.656;2022-09-24T05:44:28;30.88;;;17.30;;
69305;SDS011;56427;51.580;4.656;2022-09-24T05:46:55;36.40;;;19.08;;
69305;SDS011;56427;51.580;4.656;2022-09-24T05:49:21;34.07;;;18.33;;
69305;SDS011;56427;51.580;4.656;2022-09-24T05:51:47;28.55;;;16.00;;
69305;SDS011;56427;51.580;4.656;2022-09-24T05:54:13;27.20;;;15.13;;
69305;SDS011;56427;51.580;4.656;2022-09-24T05:56:39;23.30;;;14.87;;
69305;SDS011;56427;51.580;4.656;2022-09-24T05:59:04;25.23;;;15.37;;
69305;SDS011;56427;51.580;4.656;2022-09-24T06:01:29;24.60;;;15.07;;
69305;SDS011;56427;51.580;4.656;2022-09-24T06:03:55;26.97;;;15.57;;
69305;SDS011;56427;51.580;4.656;2022-09-24T06:06:21;28.17;;;16.38;;
69305;SDS011;56427;51.580;4.656;2022-09-24T06:08:47;30.25;;;16.33;;
69305;SDS011;56427;51.580;4.656;2022-09-24T06:11:12;29.30;;;16.07;;
69305;SDS011;56427;51.580;4.656;2022-09-24T06:13:38;26.03;;;16.20;;
69305;SDS011;56427;51.580;4.656;2022-09-24T06:16:04;22.93;;;15.10;;
69305;SDS011;56427;51.580;4.656;2022-09-24T06:18:32;25.73;;;15.27;;
69305;SDS011;56427;51.580;4.656;2022-09-24T06:20:59;33.25;;;17.33;;
69305;SDS011;56427;51.580;4.656;2022-09-24T06:23:27;27.70;;;16.75;;
69305;SDS011;56427;51.580;4.656;2022-09-24T06:25:53;21.67;;;14.77;;
69305;SDS011;56427;51.580;4.656;2022-09-24T06:28:18;24.47;;;14.10;;
69305;SDS011;56427;51.580;4.656;2022-09-24T06:30:43;20.73;;;13.70;;
69305;SDS011;56427;51.580;4.656;2022-09-24T06:33:10;23.80;;;14.87;;
69305;SDS011;56427;51.580;4.656;2022-09-24T06:35:37;20.90;;;13.52;;
69305;SDS011;56427;51.580;4.656;2022-09-24T06:38:04;20.48;;;12.82;;
69305;SDS011;56427;51.580;4.656;2022-09-24T06:40:31;21.63;;;13.98;;
69305;SDS011;56427;51.580;4.656;2022-09-24T06:42:57;25.13;;;15.57;;
69305;SDS011;56427;51.580;4.656;2022-09-24T06:45:22;19.10;;;13.00;;
69305;SDS011;56427;51.580;4.656;2022-09-24T06:47:52;23.65;;;14.52;;
69305;SDS011;56427;51.580;4.656;2022-09-24T06:50:18;24.00;;;14.20;;
69305;SDS011;56427;51.580;4.656;2022-09-24T06:52:44;23.40;;;14.13;;
69305;SDS011;56427;51.580;4.656;2022-09-24T06:55:09;20.90;;;13.67;;
69305;SDS011;56427;51.580;4.656;2022-09-24T06:57:34;24.43;;;14.43;;
69305;SDS011;56427;51.580;4.656;2022-09-24T07:00:00;26.07;;;15.30;;
69305;SDS011;56427;51.580;4.656;2022-09-24T07:02:25;22.67;;;14.03;;
69305;SDS011;56427;51.580;4.656;2022-09-24T07:04:51;19.50;;;13.27;;
69305;SDS011;56427;51.580;4.656;2022-09-24T07:07:16;21.45;;;14.27;;
69305;SDS011;56427;51.580;4.656;2022-09-24T07:09:53;23.97;;;14.47;;
69305;SDS011;56427;51.580;4.656;2022-09-24T07:12:19;21.63;;;13.98;;
69305;SDS011;56427;51.580;4.656;2022-09-24T07:14:45;20.03;;;13.87;;
69305;SDS011;56427;51.580;4.656;2022-09-24T07:17:10;25.33;;;14.67;;
69305;SDS011;56427;51.580;4.656;2022-09-24T07:19:35;21.83;;;13.65;;
69305;SDS011;56427;51.580;4.656;2022-09-24T07:22:02;20.00;;;13.48;;
69305;SDS011;56427;51.580;4.656;2022-09-24T07:24:27;20.60;;;13.50;;
69305;SDS011;56427;51.580;4.656;2022-09-24T07:26:53;23.00;;;14.60;;
69305;SDS011;56427;51.580;4.656;2022-09-24T07:29:18;22.97;;;14.13;;
69305;SDS011;56427;51.580;4.656;2022-09-24T07:31:43;22.07;;;14.17;;
69305;SDS011;56427;51.580;4.656;2022-09-24T07:34:09;23.53;;;14.83;;
69305;SDS011;56427;51.580;4.656;2022-09-24T07:36:34;21.83;;;14.63;;
69305;SDS011;56427;51.580;4.656;2022-09-24T07:39:00;20.53;;;14.33;;
69305;SDS011;56427;51.580;4.656;2022-09-24T07:41:25;24.57;;;16.33;;
69305;SDS011;56427;51.580;4.656;2022-09-24T07:43:51;20.95;;;14.50;;
69305;SDS011;56427;51.580;4.656;2022-09-24T07:46:17;21.53;;;15.37;;
69305;SDS011;56427;51.580;4.656;2022-09-24T07:48:43;19.97;;;15.40;;
69305;SDS011;56427;51.580;4.656;2022-09-24T07:51:09;25.48;;;17.70;;
69305;SDS011;56427;51.580;4.656;2022-09-24T07:53:35;32.23;;;20.40;;
69305;SDS011;56427;51.580;4.656;2022-09-24T07:56:01;24.27;;;17.08;;
69305;SDS011;56427;51.580;4.656;2022-09-24T07:58:26;32.17;;;20.20;;
69305;SDS011;56427;51.580;4.656;2022-09-24T08:00:52;28.53;;;18.37;;
69305;SDS011;56427;51.580;4.656;2022-09-24T08:03:17;26.17;;;17.40;;
69305;SDS011;56427;51.580;4.656;2022-09-24T08:05:43;23.20;;;16.77;;
69305;SDS011;56427;51.580;4.656;2022-09-24T08:08:12;25.60;;;18.73;;
69305;SDS011;56427;51.580;4.656;2022-09-24T08:10:38;39.30;;;21.83;;
69305;SDS011;56427;51.580;4.656;2022-09-24T08:13:05;30.45;;;20.35;;
69305;SDS011;56427;51.580;4.656;2022-09-24T08:15:30;31.73;;;20.27;;
69305;SDS011;56427;51.580;4.656;2022-09-24T08:18:00;29.42;;;20.75;;
69305;SDS011;56427;51.580;4.656;2022-09-24T08:20:27;31.97;;;21.40;;
69305;SDS011;56427;51.580;4.656;2022-09-24T08:22:53;31.48;;;20.80;;
69305;SDS011;56427;51.580;4.656;2022-09-24T08:25:18;30.73;;;19.87;;
69305;SDS011;56427;51.580;4.656;2022-09-24T08:27:44;32.28;;;21.08;;
69305;SDS011;56427;51.580;4.656;2022-09-24T08:30:09;30.93;;;18.90;;
69305;SDS011;56427;51.580;4.656;2022-09-24T08:32:35;37.47;;;22.45;;
69305;SDS011;56427;51.580;4.656;2022-09-24T08:35:01;29.03;;;19.30;;
69305;SDS011;56427;51.580;4.656;2022-09-24T08:37:26;34.13;;;21.37;;
69305;SDS011;56427;51.580;4.656;2022-09-24T08:39:53;39.72;;;23.02;;
69305;SDS011;56427;51.580;4.656;2022-09-24T08:42:40;32.65;;;22.48;;
69305;SDS011;56427;51.580;4.656;2022-09-24T08:45:30;29.27;;;20.73;;
69305;SDS011;56427;51.580;4.656;2022-09-24T08:48:20;36.67;;;23.40;;
69305;SDS011;56427;51.580;4.656;2022-09-24T08:50:53;31.85;;;20.95;;
69305;SDS011;56427;51.580;4.656;2022-09-24T08:56:29;36.58;;;22.05;;
69305;SDS011;56427;51.580;4.656;2022-09-24T08:58:58;31.27;;;20.93;;
69305;SDS011;56427;51.580;4.656;2022-09-24T09:01:30;29.65;;;20.92;;
69305;SDS011;56427;51.580;4.656;2022-09-24T09:12:13;31.60;;;21.80;;
69305;SDS011;56427;51.580;4.656;2022-09-24T09:14:51;37.75;;;24.02;;
69305;SDS011;56427;51.580;4.656;2022-09-24T09:20:23;31.60;;;21.42;;
69305;SDS011;56427;51.580;4.656;2022-09-24T09:22:50;34.45;;;23.38;;
69305;SDS011;56427;51.580;4.656;2022-09-24T09:25:22;31.33;;;21.60;;
69305;SDS011;56427;51.580;4.656;2022-09-24T09:27:55;36.05;;;25.15;;
69305;SDS011;56427;51.580;4.656;2022-09-24T09:30:24;38.33;;;25.27;;
69305;SDS011;56427;51.580;4.656;2022-09-24T09:35:56;39.60;;;26.85;;
69305;SDS011;56427;51.580;4.656;2022-09-24T09:41:30;41.63;;;25.55;;
69305;SDS011;56427;51.580;4.656;2022-09-24T09:44:24;34.58;;;22.67;;
69305;SDS011;56427;51.580;4.656;2022-09-24T09:50:03;36.38;;;23.67;;
69305;SDS011;56427;51.580;4.656;2022-09-24T09:52:30;39.95;;;24.63;;
69305;SDS011;56427;51.580;4.656;2022-09-24T09:55:00;35.45;;;22.25;;
69305;SDS011;56427;51.580;4.656;2022-09-24T09:57:29;31.13;;;22.08;;
69305;SDS011;56427;51.580;4.656;2022-09-24T09:59:55;30.67;;;21.07;;
69305;SDS011;56427;51.580;4.656;2022-09-24T10:02:31;32.85;;;22.13;;
69305;SDS011;56427;51.580;4.656;2022-09-24T10:05:02;34.37;;;22.07;;
69305;SDS011;56427;51.580;4.656;2022-09-24T10:07:30;33.92;;;22.38;;
69305;SDS011;56427;51.580;4.656;2022-09-24T10:10:03;30.67;;;21.02;;
69305;SDS011;56427;51.580;4.656;2022-09-24T10:12:39;31.87;;;22.37;;
69305;SDS011;56427;51.580;4.656;2022-09-24T10:15:15;32.17;;;20.50;;
69305;SDS011;56427;51.580;4.656;2022-09-24T10:17:45;32.22;;;20.65;;
69305;SDS011;56427;51.580;4.656;2022-09-24T10:22:49;28.88;;;19.38;;
69305;SDS011;56427;51.580;4.656;2022-09-24T10:25:18;28.48;;;20.27;;
69305;SDS011;56427;51.580;4.656;2022-09-24T10:27:51;29.03;;;18.10;;
69305;SDS011;56427;51.580;4.656;2022-09-24T10:30:19;28.85;;;19.70;;
69305;SDS011;56427;51.580;4.656;2022-09-24T10:33:01;25.55;;;17.40;;
69305;SDS011;56427;51.580;4.656;2022-09-24T10:35:34;23.83;;;15.85;;
69305;SDS011;56427;51.580;4.656;2022-09-24T10:38:12;22.60;;;16.20;;
69305;SDS011;56427;51.580;4.656;2022-09-24T10:40:43;26.03;;;16.13;;
69305;SDS011;56427;51.580;4.656;2022-09-24T10:43:14;24.45;;;15.90;;
69305;SDS011;56427;51.580;4.656;2022-09-24T10:48:33;20.88;;;15.48;;
69305;SDS011;56427;51.580;4.656;2022-09-24T10:56:50;19.67;;;14.45;;
69305;SDS011;56427;51.580;4.656;2022-09-24T11:12:55;13.80;;;10.75;;
69305;SDS011;56427;51.580;4.656;2022-09-24T11:15:44;15.70;;;10.85;;
69305;SDS011;56427;51.580;4.656;2022-09-24T11:29:25;13.63;;;10.67;;
69305;SDS011;56427;51.580;4.656;2022-09-24T11:32:11;17.42;;;11.90;;
69305;SDS011;56427;51.580;4.656;2022-09-24T11:37:57;18.60;;;13.65;;
69305;SDS011;56427;51.580;4.656;2022-09-24T11:42:46;19.13;;;12.67;;
69305;SDS011;56427;51.580;4.656;2022-09-24T11:45:21;17.02;;;12.52;;
69305;SDS011;56427;51.580;4.656;2022-09-24T11:50:16;17.17;;;12.80;;
69305;SDS011;56427;51.580;4.656;2022-09-24T11:53:07;18.08;;;12.82;;
69305;SDS011;56427;51.580;4.656;2022-09-24T11:55:40;18.63;;;13.40;;
69305;SDS011;56427;51.580;4.656;2022-09-24T11:58:16;16.47;;;12.13;;
69305;SDS011;56427;51.580;4.656;2022-09-24T12:06:09;13.48;;;10.23;;
69305;SDS011;56427;51.580;4.656;2022-09-24T12:11:38;15.30;;;11.47;;
69305;SDS011;56427;51.580;4.656;2022-09-24T12:16:47;17.33;;;11.95;;
69305;SDS011;56427;51.580;4.656;2022-09-24T12:19:19;14.70;;;10.35;;
69305;SDS011;56427;51.580;4.656;2022-09-24T12:21:48;13.38;;;10.38;;
69305;SDS011;56427;51.580;4.656;2022-09-24T12:27:10;14.18;;;10.88;;
69305;SDS011;56427;51.580;4.656;2022-09-24T12:41:28;11.32;;;8.68;;
69305;SDS011;56427;51.580;4.656;2022-09-24T12:46:49;14.13;;;8.87;;
69305;SDS011;56427;51.580;4.656;2022-09-24T12:51:54;11.80;;;7.88;;
69305;SDS011;56427;51.580;4.656;2022-09-24T12:59:51;10.73;;;8.38;;
69305;SDS011;56427;51.580;4.656;2022-09-24T13:02:19;13.38;;;8.55;;
69305;SDS011;56427;51.580;4.656;2022-09-24T13:07:26;12.50;;;8.05;;
69305;SDS011;56427;51.580;4.656;2022-09-24T13:10:17;11.27;;;7.97;;
69305;SDS011;56427;51.580;4.656;2022-09-24T13:12:47;12.32;;;7.65;;
69305;SDS011;56427;51.580;4.656;2022-09-24T13:15:35;11.77;;;8.43;;
69305;SDS011;56427;51.580;4.656;2022-09-24T13:20:34;6.78;;;2.28;;
69305;SDS011;56427;51.580;4.656;2022-09-24T13:23:28;7.53;;;2.50;;
69305;SDS011;56427;51.580;4.656;2022-09-24T13:25:57;6.10;;;1.63;;
69305;SDS011;56427;51.580;4.656;2022-09-24T13:28:29;3.92;;;1.50;;
69305;SDS011;56427;51.580;4.656;2022-09-24T13:36:47;5.53;;;2.03;;
69305;SDS011;56427;51.580;4.656;2022-09-24T13:40:03;4.43;;;2.75;;
69305;SDS011;56427;51.580;4.656;2022-09-24T13:44:56;8.27;;;3.40;;
69305;SDS011;56427;51.580;4.656;2022-09-24T13:47:29;6.55;;;3.58;;
69305;SDS011;56427;51.580;4.656;2022-09-24T13:50:15;8.13;;;3.60;;
69305;SDS011;56427;51.580;4.656;2022-09-24T13:52:52;8.85;;;2.80;;
69305;SDS011;56427;51.580;4.656;2022-09-24T13:55:37;7.65;;;2.95;;
69305;SDS011;56427;51.580;4.656;2022-09-24T13:58:28;9.25;;;2.63;;
69305;SDS011;56427;51.580;4.656;2022-09-24T14:01:21;9.23;;;3.20;;
69305;SDS011;56427;51.580;4.656;2022-09-24T14:03:50;13.67;;;3.23;;
69305;SDS011;56427;51.580;4.656;2022-09-24T14:09:13;19.77;;;3.95;;
69305;SDS011;56427;51.580;4.656;2022-09-24T14:11:52;9.00;;;3.15;;
69305;SDS011;56427;51.580;4.656;2022-09-24T14:14:20;13.88;;;3.10;;
69305;SDS011;56427;51.580;4.656;2022-09-24T14:16:52;9.67;;;2.40;;
69305;SDS011;56427;51.580;4.656;2022-09-24T14:19:21;12.55;;;2.80;;
69305;SDS011;56427;51.580;4.656;2022-09-24T14:21:53;15.25;;;3.78;;
69305;SDS011;56427;51.580;4.656;2022-09-24T14:24:23;11.43;;;3.08;;
69305;SDS011;56427;51.580;4.656;2022-09-24T14:26:57;9.07;;;2.70;;
69305;SDS011;56427;51.580;4.656;2022-09-24T14:29:32;12.10;;;2.93;;
69305;SDS011;56427;51.580;4.656;2022-09-24T14:32:02;13.90;;;2.83;;
69305;SDS011;56427;51.580;4.656;2022-09-24T14:34:34;7.43;;;2.78;;
69305;SDS011;56427;51.580;4.656;2022-09-24T14:37:07;14.98;;;3.00;;
69305;SDS011;56427;51.580;4.656;2022-09-24T14:39:42;16.40;;;3.13;;
69305;SDS011;56427;51.580;4.656;2022-09-24T14:42:21;12.67;;;2.63;;
69305;SDS011;56427;51.580;4.656;2022-09-24T14:44:51;9.85;;;2.88;;
69305;SDS011;56427;51.580;4.656;2022-09-24T14:47:32;12.30;;;3.08;;
69305;SDS011;56427;51.580;4.656;2022-09-24T14:49:59;9.35;;;2.72;;
69305;SDS011;56427;51.580;4.656;2022-09-24T14:55:09;14.80;;;2.70;;
69305;SDS011;56427;51.580;4.656;2022-09-24T14:57:39;10.85;;;2.95;;
69305;SDS011;56427;51.580;4.656;2022-09-24T15:00:27;17.98;;;4.40;;
69305;SDS011;56427;51.580;4.656;2022-09-24T15:02:57;21.92;;;3.75;;
69305;SDS011;56427;51.580;4.656;2022-09-24T15:05:26;9.60;;;2.47;;
69305;SDS011;56427;51.580;4.656;2022-09-24T15:08:09;16.73;;;3.30;;
69305;SDS011;56427;51.580;4.656;2022-09-24T15:10:50;15.27;;;4.72;;
69305;SDS011;56427;51.580;4.656;2022-09-24T15:13:28;10.13;;;2.72;;
69305;SDS011;56427;51.580;4.656;2022-09-24T15:16:13;7.85;;;2.63;;
69305;SDS011;56427;51.580;4.656;2022-09-24T15:18:43;11.07;;;2.60;;
69305;SDS011;56427;51.580;4.656;2022-09-24T15:21:08;11.68;;;2.80;;
69305;SDS011;56427;51.580;4.656;2022-09-24T15:23:35;7.63;;;2.33;;
69305;SDS011;56427;51.580;4.656;2022-09-24T15:26:01;12.32;;;2.53;;
69305;SDS011;56427;51.580;4.656;2022-09-24T15:28:27;11.77;;;2.33;;
69305;SDS011;56427;51.580;4.656;2022-09-24T15:30:53;11.48;;;3.17;;
69305;SDS011;56427;51.580;4.656;2022-09-24T15:33:18;10.07;;;2.50;;
69305;SDS011;56427;51.580;4.656;2022-09-24T15:35:44;9.33;;;2.03;;
69305;SDS011;56427;51.580;4.656;2022-09-24T15:38:19;10.45;;;2.60;;
69305;SDS011;56427;51.580;4.656;2022-09-24T15:40:44;9.57;;;2.58;;
69305;SDS011;56427;51.580;4.656;2022-09-24T15:43:16;13.53;;;2.63;;
69305;SDS011;56427;51.580;4.656;2022-09-24T15:45:43;12.30;;;2.22;;
69305;SDS011;56427;51.580;4.656;2022-09-24T15:48:09;11.90;;;2.17;;
69305;SDS011;56427;51.580;4.656;2022-09-24T15:50:35;13.98;;;2.40;;
69305;SDS011;56427;51.580;4.656;2022-09-24T15:53:03;14.50;;;2.40;;
69305;SDS011;56427;51.580;4.656;2022-09-24T15:55:29;9.88;;;2.40;;
69305;SDS011;56427;51.580;4.656;2022-09-24T15:57:55;11.82;;;2.53;;
69305;SDS011;56427;51.580;4.656;2022-09-24T16:00:21;10.63;;;1.93;;
69305;SDS011;56427;51.580;4.656;2022-09-24T16:02:49;14.80;;;2.33;;
69305;SDS011;56427;51.580;4.656;2022-09-24T16:05:17;10.60;;;2.30;;
69305;SDS011;56427;51.580;4.656;2022-09-24T16:07:42;6.85;;;1.95;;
69305;SDS011;56427;51.580;4.656;2022-09-24T16:10:08;12.77;;;2.80;;
69305;SDS011;56427;51.580;4.656;2022-09-24T16:12:35;9.73;;;2.75;;
69305;SDS011;56427;51.580;4.656;2022-09-24T16:15:00;8.23;;;3.03;;
69305;SDS011;56427;51.580;4.656;2022-09-24T16:17:26;14.07;;;3.20;;
69305;SDS011;56427;51.580;4.656;2022-09-24T16:19:52;7.57;;;2.50;;
69305;SDS011;56427;51.580;4.656;2022-09-24T16:22:18;11.18;;;1.77;;
69305;SDS011;56427;51.580;4.656;2022-09-24T16:24:43;7.03;;;2.47;;
69305;SDS011;56427;51.580;4.656;2022-09-24T16:27:09;11.53;;;2.40;;
69305;SDS011;56427;51.580;4.656;2022-09-24T16:29:34;9.57;;;2.70;;
69305;SDS011;56427;51.580;4.656;2022-09-24T16:32:00;6.77;;;1.93;;
69305;SDS011;56427;51.580;4.656;2022-09-24T16:34:26;7.70;;;2.13;;
69305;SDS011;56427;51.580;4.656;2022-09-24T16:36:52;9.03;;;2.40;;
69305;SDS011;56427;51.580;4.656;2022-09-24T16:39:18;7.82;;;2.42;;
69305;SDS011;56427;51.580;4.656;2022-09-24T16:41:43;15.53;;;2.13;;
69305;SDS011;56427;51.580;4.656;2022-09-24T16:44:11;9.88;;;2.08;;
69305;SDS011;56427;51.580;4.656;2022-09-24T16:46:40;5.75;;;1.80;;
69305;SDS011;56427;51.580;4.656;2022-09-24T16:49:06;10.68;;;1.88;;
69305;SDS011;56427;51.580;4.656;2022-09-24T16:51:31;10.83;;;1.70;;
69305;SDS011;56427;51.580;4.656;2022-09-24T16:53:56;7.13;;;2.00;;
69305;SDS011;56427;51.580;4.656;2022-09-24T16:56:22;9.67;;;1.73;;